sensor_id;sensor_type;location;lat;lon;timestamp;P1;durP1;ratioP1;P2;durP2;ratioP2
5774;SDS011;2913;51.120;6.772;2024-02-21T00:01:16;26.73;;;6.40;;
5774;SDS011;2913;51.120;6.772;2024-02-21T00:03:42;20.98;;;5.85;;
5774;SDS011;2913;51.120;6.772;2024-02-21T00:06:08;23.33;;;6.63;;
5774;SDS011;2913;51.120;6.772;2024-02-21T00:08:36;22.65;;;7.22;;
5774;SDS011;2913;51.120;6.772;2024-02-21T00:11:04;25.35;;;7.10;;
5774;SDS011;2913;51.120;6.772;2024-02-21T00:13:32;20.85;;;6.07;;
5774;SDS011;2913;51.120;6.772;2024-02-21T00:16:00;25.45;;;7.13;;
5774;SDS011;2913;51.120;6.772;2024-02-21T00:18:29;20.38;;;6.28;;
5774;SDS011;2913;51.120;6.772;2024-02-21T00:20:54;19.63;;;6.38;;
5774;SDS011;2913;51.120;6.772;2024-02-21T00:23:20;18.67;;;5.50;;
5774;SDS011;2913;51.120;6.772;2024-02-21T00:25:46;20.75;;;6.30;;
5774;SDS011;2913;51.120;6.772;2024-02-21T00:28:12;17.52;;;6.10;;
5774;SDS011;2913;51.120;6.772;2024-02-21T00:30:40;20.15;;;6.63;;
5774;SDS011;2913;51.120;6.772;2024-02-21T00:33:13;22.88;;;7.03;;
5774;SDS011;2913;51.120;6.772;2024-02-21T00:35:41;27.92;;;6.80;;
5774;SDS011;2913;51.120;6.772;2024-02-21T00:38:07;20.20;;;5.68;;
5774;SDS011;2913;51.120;6.772;2024-02-21T00:40:35;24.05;;;6.10;;
5774;SDS011;2913;51.120;6.772;2024-02-21T00:43:00;24.48;;;7.03;;
5774;SDS011;2913;51.120;6.772;2024-02-21T00:45:26;19.63;;;5.85;;
5774;SDS011;2913;51.120;6.772;2024-02-21T00:47:51;27.42;;;7.22;;
5774;SDS011;2913;51.120;6.772;2024-02-21T00:50:19;17.75;;;5.78;;
5774;SDS011;2913;51.120;6.772;2024-02-21T00:52:45;22.88;;;6.57;;
5774;SDS011;2913;51.120;6.772;2024-02-21T00:55:13;21.38;;;7.13;;
5774;SDS011;2913;51.120;6.772;2024-02-21T00:57:41;22.10;;;6.10;;
5774;SDS011;2913;51.120;6.772;2024-02-21T01:00:07;22.00;;;6.53;;
5774;SDS011;2913;51.120;6.772;2024-02-21T01:02:33;19.77;;;6.60;;
5774;SDS011;2913;51.120;6.772;2024-02-21T01:04:59;19.40;;;6.60;;
5774;SDS011;2913;51.120;6.772;2024-02-21T01:07:31;21.92;;;6.47;;
5774;SDS011;2913;51.120;6.772;2024-02-21T01:10:00;23.08;;;7.22;;
5774;SDS011;2913;51.120;6.772;2024-02-21T01:12:25;31.65;;;6.50;;
5774;SDS011;2913;51.120;6.772;2024-02-21T01:14:51;20.63;;;6.53;;
5774;SDS011;2913;51.120;6.772;2024-02-21T01:17:17;20.50;;;6.47;;
5774;SDS011;2913;51.120;6.772;2024-02-21T01:19:43;24.80;;;6.20;;
5774;SDS011;2913;51.120;6.772;2024-02-21T01:22:08;19.75;;;6.47;;
5774;SDS011;2913;51.120;6.772;2024-02-21T01:24:36;16.15;;;6.28;;
5774;SDS011;2913;51.120;6.772;2024-02-21T01:27:06;22.02;;;6.35;;
5774;SDS011;2913;51.120;6.772;2024-02-21T01:29:35;19.70;;;5.60;;
5774;SDS011;2913;51.120;6.772;2024-02-21T01:32:03;14.57;;;6.20;;
5774;SDS011;2913;51.120;6.772;2024-02-21T01:34:28;24.15;;;6.28;;
5774;SDS011;2913;51.120;6.772;2024-02-21T01:36:56;19.73;;;5.28;;
5774;SDS011;2913;51.120;6.772;2024-02-21T01:39:25;18.92;;;6.05;;
5774;SDS011;2913;51.120;6.772;2024-02-21T01:41:52;19.23;;;6.10;;
5774;SDS011;2913;51.120;6.772;2024-02-21T01:44:18;27.20;;;6.25;;
5774;SDS011;2913;51.120;6.772;2024-02-21T01:46:43;22.98;;;6.15;;
5774;SDS011;2913;51.120;6.772;2024-02-21T01:49:09;20.38;;;5.93;;
5774;SDS011;2913;51.120;6.772;2024-02-21T01:51:35;27.00;;;6.03;;
5774;SDS011;2913;51.120;6.772;2024-02-21T01:54:04;21.35;;;5.45;;
5774;SDS011;2913;51.120;6.772;2024-02-21T01:56:30;17.77;;;6.22;;
5774;SDS011;2913;51.120;6.772;2024-02-21T01:58:56;19.55;;;6.13;;
5774;SDS011;2913;51.120;6.772;2024-02-21T02:01:21;22.20;;;6.13;;
5774;SDS011;2913;51.120;6.772;2024-02-21T02:03:50;22.13;;;6.07;;
5774;SDS011;2913;51.120;6.772;2024-02-21T02:06:16;21.30;;;6.50;;
5774;SDS011;2913;51.120;6.772;2024-02-21T02:08:44;20.23;;;5.90;;
5774;SDS011;2913;51.120;6.772;2024-02-21T02:11:10;44.13;;;6.85;;
5774;SDS011;2913;51.120;6.772;2024-02-21T02:13:40;22.90;;;5.80;;
5774;SDS011;2913;51.120;6.772;2024-02-21T02:16:06;24.17;;;6.20;;
5774;SDS011;2913;51.120;6.772;2024-02-21T02:18:31;16.58;;;5.93;;
5774;SDS011;2913;51.120;6.772;2024-02-21T02:20:57;22.70;;;6.00;;
5774;SDS011;2913;51.120;6.772;2024-02-21T02:25:57;18.77;;;5.65;;
5774;SDS011;2913;51.120;6.772;2024-02-21T02:28:28;19.85;;;6.20;;
5774;SDS011;2913;51.120;6.772;2024-02-21T02:30:56;16.30;;;5.90;;
5774;SDS011;2913;51.120;6.772;2024-02-21T02:33:24;18.30;;;6.22;;
5774;SDS011;2913;51.120;6.772;2024-02-21T02:35:50;24.77;;;6.35;;
5774;SDS011;2913;51.120;6.772;2024-02-21T02:38:15;19.92;;;5.63;;
5774;SDS011;2913;51.120;6.772;2024-02-21T02:40:41;29.20;;;6.45;;
5774;SDS011;2913;51.120;6.772;2024-02-21T02:43:10;18.83;;;5.45;;
5774;SDS011;2913;51.120;6.772;2024-02-21T02:45:35;15.77;;;5.47;;
5774;SDS011;2913;51.120;6.772;2024-02-21T02:48:01;20.27;;;5.57;;
5774;SDS011;2913;51.120;6.772;2024-02-21T02:50:29;21.17;;;5.40;;
5774;SDS011;2913;51.120;6.772;2024-02-21T02:52:55;22.20;;;5.60;;
5774;SDS011;2913;51.120;6.772;2024-02-21T02:55:20;25.38;;;6.72;;
5774;SDS011;2913;51.120;6.772;2024-02-21T02:57:46;17.65;;;5.50;;
5774;SDS011;2913;51.120;6.772;2024-02-21T03:00:12;17.85;;;5.50;;
5774;SDS011;2913;51.120;6.772;2024-02-21T03:02:39;15.90;;;5.70;;
5774;SDS011;2913;51.120;6.772;2024-02-21T03:05:13;21.77;;;5.72;;
5774;SDS011;2913;51.120;6.772;2024-02-21T03:07:40;21.02;;;6.03;;
5774;SDS011;2913;51.120;6.772;2024-02-21T03:10:06;16.75;;;5.47;;
5774;SDS011;2913;51.120;6.772;2024-02-21T03:12:32;25.95;;;5.57;;
5774;SDS011;2913;51.120;6.772;2024-02-21T03:15:00;20.40;;;6.90;;
5774;SDS011;2913;51.120;6.772;2024-02-21T03:17:26;18.73;;;5.57;;
5774;SDS011;2913;51.120;6.772;2024-02-21T03:19:55;17.00;;;5.30;;
5774;SDS011;2913;51.120;6.772;2024-02-21T03:22:22;18.05;;;5.30;;
5774;SDS011;2913;51.120;6.772;2024-02-21T03:24:50;22.50;;;5.55;;
5774;SDS011;2913;51.120;6.772;2024-02-21T03:27:16;21.00;;;6.20;;
5774;SDS011;2913;51.120;6.772;2024-02-21T03:29:46;13.43;;;4.97;;
5774;SDS011;2913;51.120;6.772;2024-02-21T03:32:12;19.40;;;5.30;;
5774;SDS011;2913;51.120;6.772;2024-02-21T03:34:40;18.23;;;5.43;;
5774;SDS011;2913;51.120;6.772;2024-02-21T03:37:05;21.25;;;5.72;;
5774;SDS011;2913;51.120;6.772;2024-02-21T03:39:34;16.92;;;6.30;;
5774;SDS011;2913;51.120;6.772;2024-02-21T03:41:59;20.58;;;5.75;;
5774;SDS011;2913;51.120;6.772;2024-02-21T03:44:30;20.08;;;5.60;;
5774;SDS011;2913;51.120;6.772;2024-02-21T03:46:56;21.27;;;5.20;;
5774;SDS011;2913;51.120;6.772;2024-02-21T03:49:22;12.90;;;5.10;;
5774;SDS011;2913;51.120;6.772;2024-02-21T03:51:50;19.15;;;5.75;;
5774;SDS011;2913;51.120;6.772;2024-02-21T03:54:16;19.13;;;5.07;;
5774;SDS011;2913;51.120;6.772;2024-02-21T03:56:41;20.08;;;4.65;;
5774;SDS011;2913;51.120;6.772;2024-02-21T03:59:12;18.60;;;5.15;;
5774;SDS011;2913;51.120;6.772;2024-02-21T04:01:37;15.52;;;4.88;;
5774;SDS011;2913;51.120;6.772;2024-02-21T04:04:03;19.55;;;5.07;;
5774;SDS011;2913;51.120;6.772;2024-02-21T04:06:31;16.63;;;4.47;;
5774;SDS011;2913;51.120;6.772;2024-02-21T04:08:57;16.75;;;4.75;;
5774;SDS011;2913;51.120;6.772;2024-02-21T04:11:23;14.15;;;4.60;;
5774;SDS011;2913;51.120;6.772;2024-02-21T04:13:51;15.07;;;4.82;;
5774;SDS011;2913;51.120;6.772;2024-02-21T04:16:17;19.45;;;4.80;;
5774;SDS011;2913;51.120;6.772;2024-02-21T04:18:45;18.45;;;5.15;;
5774;SDS011;2913;51.120;6.772;2024-02-21T04:21:13;20.92;;;4.47;;
5774;SDS011;2913;51.120;6.772;2024-02-21T04:23:42;16.83;;;5.10;;
5774;SDS011;2913;51.120;6.772;2024-02-21T04:26:08;16.73;;;5.03;;
5774;SDS011;2913;51.120;6.772;2024-02-21T04:28:34;12.95;;;4.50;;
5774;SDS011;2913;51.120;6.772;2024-02-21T04:30:59;19.20;;;4.63;;
5774;SDS011;2913;51.120;6.772;2024-02-21T04:33:27;14.65;;;4.60;;
5774;SDS011;2913;51.120;6.772;2024-02-21T04:35:53;16.67;;;4.68;;
5774;SDS011;2913;51.120;6.772;2024-02-21T04:38:20;12.77;;;4.68;;
5774;SDS011;2913;51.120;6.772;2024-02-21T04:40:52;15.48;;;4.53;;
5774;SDS011;2913;51.120;6.772;2024-02-21T04:43:18;17.90;;;4.65;;
5774;SDS011;2913;51.120;6.772;2024-02-21T04:45:44;16.02;;;4.25;;
5774;SDS011;2913;51.120;6.772;2024-02-21T04:48:09;20.02;;;5.00;;
5774;SDS011;2913;51.120;6.772;2024-02-21T04:50:35;20.13;;;4.32;;
5774;SDS011;2913;51.120;6.772;2024-02-21T04:53:01;16.55;;;4.47;;
5774;SDS011;2913;51.120;6.772;2024-02-21T04:55:28;21.13;;;4.53;;
5774;SDS011;2913;51.120;6.772;2024-02-21T04:57:56;14.52;;;4.57;;
5774;SDS011;2913;51.120;6.772;2024-02-21T05:00:22;17.73;;;4.18;;
5774;SDS011;2913;51.120;6.772;2024-02-21T05:02:48;23.50;;;4.35;;
5774;SDS011;2913;51.120;6.772;2024-02-21T05:05:13;16.35;;;4.57;;
5774;SDS011;2913;51.120;6.772;2024-02-21T05:07:40;19.90;;;4.70;;
5774;SDS011;2913;51.120;6.772;2024-02-21T05:10:08;15.40;;;4.47;;
5774;SDS011;2913;51.120;6.772;2024-02-21T05:12:36;16.40;;;4.45;;
5774;SDS011;2913;51.120;6.772;2024-02-21T05:15:02;15.05;;;4.50;;
5774;SDS011;2913;51.120;6.772;2024-02-21T05:17:28;15.63;;;4.60;;
5774;SDS011;2913;51.120;6.772;2024-02-21T05:19:54;21.92;;;5.03;;
5774;SDS011;2913;51.120;6.772;2024-02-21T05:22:22;14.98;;;5.05;;
5774;SDS011;2913;51.120;6.772;2024-02-21T05:24:47;12.02;;;4.43;;
5774;SDS011;2913;51.120;6.772;2024-02-21T05:27:15;24.05;;;4.85;;
5774;SDS011;2913;51.120;6.772;2024-02-21T05:29:41;10.88;;;4.15;;
5774;SDS011;2913;51.120;6.772;2024-02-21T05:32:07;11.50;;;4.50;;
5774;SDS011;2913;51.120;6.772;2024-02-21T05:34:35;16.83;;;4.20;;
5774;SDS011;2913;51.120;6.772;2024-02-21T05:37:00;15.65;;;4.65;;
5774;SDS011;2913;51.120;6.772;2024-02-21T05:39:26;16.70;;;4.68;;
5774;SDS011;2913;51.120;6.772;2024-02-21T05:41:53;16.83;;;4.38;;
5774;SDS011;2913;51.120;6.772;2024-02-21T05:44:19;14.90;;;4.38;;
5774;SDS011;2913;51.120;6.772;2024-02-21T05:46:47;16.27;;;4.20;;
5774;SDS011;2913;51.120;6.772;2024-02-21T05:49:12;14.73;;;3.80;;
5774;SDS011;2913;51.120;6.772;2024-02-21T05:51:40;15.75;;;4.30;;
5774;SDS011;2913;51.120;6.772;2024-02-21T05:54:06;16.02;;;3.83;;
5774;SDS011;2913;51.120;6.772;2024-02-21T05:56:34;15.60;;;4.80;;
5774;SDS011;2913;51.120;6.772;2024-02-21T05:59:00;11.10;;;4.30;;
5774;SDS011;2913;51.120;6.772;2024-02-21T06:01:26;13.70;;;4.20;;
5774;SDS011;2913;51.120;6.772;2024-02-21T06:03:56;13.10;;;4.18;;
5774;SDS011;2913;51.120;6.772;2024-02-21T06:06:23;14.52;;;4.32;;
5774;SDS011;2913;51.120;6.772;2024-02-21T06:08:49;16.35;;;3.95;;
5774;SDS011;2913;51.120;6.772;2024-02-21T06:11:15;20.02;;;4.57;;
5774;SDS011;2913;51.120;6.772;2024-02-21T06:13:43;17.30;;;4.28;;
5774;SDS011;2913;51.120;6.772;2024-02-21T06:16:13;14.05;;;3.95;;
5774;SDS011;2913;51.120;6.772;2024-02-21T06:18:39;12.20;;;4.30;;
5774;SDS011;2913;51.120;6.772;2024-02-21T06:21:04;17.58;;;4.85;;
5774;SDS011;2913;51.120;6.772;2024-02-21T06:23:32;13.55;;;4.25;;
5774;SDS011;2913;51.120;6.772;2024-02-21T06:25:58;13.85;;;3.80;;
5774;SDS011;2913;51.120;6.772;2024-02-21T06:28:23;16.13;;;3.55;;
5774;SDS011;2913;51.120;6.772;2024-02-21T06:30:49;13.73;;;4.00;;
5774;SDS011;2913;51.120;6.772;2024-02-21T06:33:17;13.35;;;3.95;;
5774;SDS011;2913;51.120;6.772;2024-02-21T06:35:43;12.15;;;4.00;;
5774;SDS011;2913;51.120;6.772;2024-02-21T06:38:12;14.32;;;4.90;;
5774;SDS011;2913;51.120;6.772;2024-02-21T06:40:37;15.70;;;4.13;;
5774;SDS011;2913;51.120;6.772;2024-02-21T06:43:05;16.58;;;3.70;;
5774;SDS011;2913;51.120;6.772;2024-02-21T06:45:33;9.80;;;3.97;;
5774;SDS011;2913;51.120;6.772;2024-02-21T06:48:01;10.38;;;3.60;;
5774;SDS011;2913;51.120;6.772;2024-02-21T06:50:27;13.93;;;3.72;;
5774;SDS011;2913;51.120;6.772;2024-02-21T06:52:52;10.65;;;3.67;;
5774;SDS011;2913;51.120;6.772;2024-02-21T06:55:18;11.57;;;3.17;;
5774;SDS011;2913;51.120;6.772;2024-02-21T06:57:43;12.15;;;3.13;;
5774;SDS011;2913;51.120;6.772;2024-02-21T07:00:09;11.50;;;3.10;;
5774;SDS011;2913;51.120;6.772;2024-02-21T07:02:41;9.98;;;3.30;;
5774;SDS011;2913;51.120;6.772;2024-02-21T07:05:06;10.57;;;2.97;;
5774;SDS011;2913;51.120;6.772;2024-02-21T07:07:35;7.13;;;2.50;;
5774;SDS011;2913;51.120;6.772;2024-02-21T07:10:05;15.02;;;2.90;;
5774;SDS011;2913;51.120;6.772;2024-02-21T07:12:33;7.53;;;3.13;;
5774;SDS011;2913;51.120;6.772;2024-02-21T07:15:00;9.48;;;3.25;;
5774;SDS011;2913;51.120;6.772;2024-02-21T07:17:29;15.05;;;2.85;;
5774;SDS011;2913;51.120;6.772;2024-02-21T07:19:54;7.15;;;3.08;;
5774;SDS011;2913;51.120;6.772;2024-02-21T07:22:21;11.52;;;3.15;;
5774;SDS011;2913;51.120;6.772;2024-02-21T07:24:49;12.43;;;3.40;;
5774;SDS011;2913;51.120;6.772;2024-02-21T07:27:15;14.32;;;3.78;;
5774;SDS011;2913;51.120;6.772;2024-02-21T07:29:41;8.48;;;3.08;;
5774;SDS011;2913;51.120;6.772;2024-02-21T07:32:07;14.65;;;3.92;;
5774;SDS011;2913;51.120;6.772;2024-02-21T07:34:40;11.30;;;3.38;;
5774;SDS011;2913;51.120;6.772;2024-02-21T07:37:05;11.68;;;3.55;;
5774;SDS011;2913;51.120;6.772;2024-02-21T07:39:35;12.57;;;3.47;;
5774;SDS011;2913;51.120;6.772;2024-02-21T07:42:03;14.90;;;3.78;;
5774;SDS011;2913;51.120;6.772;2024-02-21T07:44:29;10.75;;;3.67;;
5774;SDS011;2913;51.120;6.772;2024-02-21T07:46:57;10.18;;;2.88;;
5774;SDS011;2913;51.120;6.772;2024-02-21T07:49:23;10.20;;;3.60;;
5774;SDS011;2913;51.120;6.772;2024-02-21T07:51:48;10.20;;;3.63;;
5774;SDS011;2913;51.120;6.772;2024-02-21T07:54:14;14.18;;;3.22;;
5774;SDS011;2913;51.120;6.772;2024-02-21T07:56:42;13.48;;;3.00;;
5774;SDS011;2913;51.120;6.772;2024-02-21T07:59:12;11.32;;;3.05;;
5774;SDS011;2913;51.120;6.772;2024-02-21T08:01:39;15.75;;;3.50;;
5774;SDS011;2913;51.120;6.772;2024-02-21T08:04:07;13.18;;;3.38;;
5774;SDS011;2913;51.120;6.772;2024-02-21T08:06:33;9.80;;;3.17;;
5774;SDS011;2913;51.120;6.772;2024-02-21T08:08:59;13.70;;;3.75;;
5774;SDS011;2913;51.120;6.772;2024-02-21T08:11:25;16.48;;;3.25;;
5774;SDS011;2913;51.120;6.772;2024-02-21T08:13:53;13.38;;;3.75;;
5774;SDS011;2913;51.120;6.772;2024-02-21T08:16:18;10.15;;;2.90;;
5774;SDS011;2913;51.120;6.772;2024-02-21T08:18:44;11.73;;;3.13;;
5774;SDS011;2913;51.120;6.772;2024-02-21T08:21:12;14.13;;;3.22;;
5774;SDS011;2913;51.120;6.772;2024-02-21T08:23:38;19.70;;;3.67;;
5774;SDS011;2913;51.120;6.772;2024-02-21T08:26:03;14.27;;;3.65;;
5774;SDS011;2913;51.120;6.772;2024-02-21T08:28:32;19.60;;;4.00;;
5774;SDS011;2913;51.120;6.772;2024-02-21T08:31:00;18.48;;;3.72;;
5774;SDS011;2913;51.120;6.772;2024-02-21T08:33:28;12.80;;;4.75;;
5774;SDS011;2913;51.120;6.772;2024-02-21T08:35:54;12.73;;;4.32;;
5774;SDS011;2913;51.120;6.772;2024-02-21T08:38:20;10.15;;;3.67;;
5774;SDS011;2913;51.120;6.772;2024-02-21T08:40:46;16.38;;;4.13;;
5774;SDS011;2913;51.120;6.772;2024-02-21T08:43:11;19.23;;;3.88;;
5774;SDS011;2913;51.120;6.772;2024-02-21T08:45:37;12.60;;;3.67;;
5774;SDS011;2913;51.120;6.772;2024-02-21T08:48:02;12.68;;;3.38;;
5774;SDS011;2913;51.120;6.772;2024-02-21T08:50:28;17.35;;;3.95;;
5774;SDS011;2913;51.120;6.772;2024-02-21T08:52:54;15.32;;;3.45;;
5774;SDS011;2913;51.120;6.772;2024-02-21T08:55:20;14.27;;;3.33;;
5774;SDS011;2913;51.120;6.772;2024-02-21T08:57:49;13.60;;;3.65;;
5774;SDS011;2913;51.120;6.772;2024-02-21T09:00:15;19.15;;;3.65;;
5774;SDS011;2913;51.120;6.772;2024-02-21T09:02:46;21.30;;;3.85;;
5774;SDS011;2913;51.120;6.772;2024-02-21T09:05:11;15.98;;;3.40;;
5774;SDS011;2913;51.120;6.772;2024-02-21T09:07:37;13.00;;;4.43;;
5774;SDS011;2913;51.120;6.772;2024-02-21T09:10:03;15.95;;;3.83;;
5774;SDS011;2913;51.120;6.772;2024-02-21T09:12:31;18.10;;;3.50;;
5774;SDS011;2913;51.120;6.772;2024-02-21T09:15:00;14.30;;;3.30;;
5774;SDS011;2913;51.120;6.772;2024-02-21T09:17:25;11.93;;;3.63;;
5774;SDS011;2913;51.120;6.772;2024-02-21T09:19:54;11.57;;;3.25;;
5774;SDS011;2913;51.120;6.772;2024-02-21T09:22:27;16.35;;;3.53;;
5774;SDS011;2913;51.120;6.772;2024-02-21T09:24:53;10.65;;;3.58;;
5774;SDS011;2913;51.120;6.772;2024-02-21T09:27:19;14.45;;;3.85;;
5774;SDS011;2913;51.120;6.772;2024-02-21T09:29:45;11.68;;;3.80;;
5774;SDS011;2913;51.120;6.772;2024-02-21T09:32:12;13.23;;;3.50;;
5774;SDS011;2913;51.120;6.772;2024-02-21T09:34:38;14.18;;;3.63;;
5774;SDS011;2913;51.120;6.772;2024-02-21T09:37:07;8.43;;;3.20;;
5774;SDS011;2913;51.120;6.772;2024-02-21T09:39:35;9.65;;;3.20;;
5774;SDS011;2913;51.120;6.772;2024-02-21T09:42:03;10.85;;;3.10;;
5774;SDS011;2913;51.120;6.772;2024-02-21T09:44:40;13.98;;;3.55;;
5774;SDS011;2913;51.120;6.772;2024-02-21T09:47:09;9.32;;;3.08;;
5774;SDS011;2913;51.120;6.772;2024-02-21T09:49:42;6.90;;;2.65;;
5774;SDS011;2913;51.120;6.772;2024-02-21T09:52:09;12.57;;;3.55;;
5774;SDS011;2913;51.120;6.772;2024-02-21T09:54:38;15.95;;;2.85;;
5774;SDS011;2913;51.120;6.772;2024-02-21T09:57:07;7.05;;;2.70;;
5774;SDS011;2913;51.120;6.772;2024-02-21T09:59:33;6.35;;;2.78;;
5774;SDS011;2913;51.120;6.772;2024-02-21T10:02:01;8.35;;;2.53;;
5774;SDS011;2913;51.120;6.772;2024-02-21T10:04:27;7.80;;;2.65;;
5774;SDS011;2913;51.120;6.772;2024-02-21T10:06:56;5.88;;;2.42;;
5774;SDS011;2913;51.120;6.772;2024-02-21T10:09:22;9.73;;;2.58;;
5774;SDS011;2913;51.120;6.772;2024-02-21T10:11:55;9.48;;;2.78;;
5774;SDS011;2913;51.120;6.772;2024-02-21T10:14:23;11.63;;;2.58;;
5774;SDS011;2913;51.120;6.772;2024-02-21T10:16:57;7.32;;;2.03;;
5774;SDS011;2913;51.120;6.772;2024-02-21T10:19:30;5.10;;;2.10;;
5774;SDS011;2913;51.120;6.772;2024-02-21T10:22:01;7.50;;;2.55;;
5774;SDS011;2913;51.120;6.772;2024-02-21T10:24:33;9.35;;;2.58;;
5774;SDS011;2913;51.120;6.772;2024-02-21T10:27:08;16.95;;;2.88;;
5774;SDS011;2913;51.120;6.772;2024-02-21T10:29:35;11.73;;;2.88;;
5774;SDS011;2913;51.120;6.772;2024-02-21T10:32:11;11.10;;;3.30;;
5774;SDS011;2913;51.120;6.772;2024-02-21T10:34:38;7.70;;;2.50;;
5774;SDS011;2913;51.120;6.772;2024-02-21T10:37:08;10.00;;;2.90;;
5774;SDS011;2913;51.120;6.772;2024-02-21T10:39:38;9.50;;;1.95;;
5774;SDS011;2913;51.120;6.772;2024-02-21T10:42:05;11.77;;;2.47;;
5774;SDS011;2913;51.120;6.772;2024-02-21T10:44:36;11.27;;;2.70;;
5774;SDS011;2913;51.120;6.772;2024-02-21T10:47:05;7.78;;;2.70;;
5774;SDS011;2913;51.120;6.772;2024-02-21T10:49:44;7.22;;;2.70;;
5774;SDS011;2913;51.120;6.772;2024-02-21T10:54:55;9.05;;;3.00;;
5774;SDS011;2913;51.120;6.772;2024-02-21T10:57:25;8.85;;;2.25;;
5774;SDS011;2913;51.120;6.772;2024-02-21T10:59:58;8.32;;;2.60;;
5774;SDS011;2913;51.120;6.772;2024-02-21T11:02:27;9.63;;;2.17;;
5774;SDS011;2913;51.120;6.772;2024-02-21T11:04:55;7.57;;;2.83;;
5774;SDS011;2913;51.120;6.772;2024-02-21T11:07:29;7.50;;;2.92;;
5774;SDS011;2913;51.120;6.772;2024-02-21T11:09:59;10.45;;;3.17;;
5774;SDS011;2913;51.120;6.772;2024-02-21T11:12:25;9.00;;;2.97;;
5774;SDS011;2913;51.120;6.772;2024-02-21T11:14:55;12.77;;;2.50;;
5774;SDS011;2913;51.120;6.772;2024-02-21T11:17:30;11.80;;;3.25;;
5774;SDS011;2913;51.120;6.772;2024-02-21T11:19:58;10.13;;;2.78;;
5774;SDS011;2913;51.120;6.772;2024-02-21T11:22:25;14.95;;;3.15;;
5774;SDS011;2913;51.120;6.772;2024-02-21T11:25:05;9.13;;;3.22;;
5774;SDS011;2913;51.120;6.772;2024-02-21T11:27:36;7.32;;;2.33;;
5774;SDS011;2913;51.120;6.772;2024-02-21T11:30:05;5.43;;;2.20;;
5774;SDS011;2913;51.120;6.772;2024-02-21T11:32:31;10.90;;;2.15;;
5774;SDS011;2913;51.120;6.772;2024-02-21T11:35:02;8.38;;;1.42;;
5774;SDS011;2913;51.120;6.772;2024-02-21T11:37:34;12.18;;;2.78;;
5774;SDS011;2913;51.120;6.772;2024-02-21T11:40:02;11.43;;;2.85;;
5774;SDS011;2913;51.120;6.772;2024-02-21T11:42:35;16.58;;;3.75;;
5774;SDS011;2913;51.120;6.772;2024-02-21T11:45:00;11.07;;;2.63;;
5774;SDS011;2913;51.120;6.772;2024-02-21T11:47:28;9.43;;;2.65;;
5774;SDS011;2913;51.120;6.772;2024-02-21T11:49:54;9.85;;;2.47;;
5774;SDS011;2913;51.120;6.772;2024-02-21T11:52:23;5.30;;;2.50;;
5774;SDS011;2913;51.120;6.772;2024-02-21T11:54:52;7.82;;;2.58;;
5774;SDS011;2913;51.120;6.772;2024-02-21T11:57:21;9.68;;;2.25;;
5774;SDS011;2913;51.120;6.772;2024-02-21T11:59:47;10.20;;;2.50;;
5774;SDS011;2913;51.120;6.772;2024-02-21T12:02:14;4.05;;;1.70;;
5774;SDS011;2913;51.120;6.772;2024-02-21T12:04:40;3.38;;;1.50;;
5774;SDS011;2913;51.120;6.772;2024-02-21T12:07:06;8.05;;;2.28;;
5774;SDS011;2913;51.120;6.772;2024-02-21T12:09:34;6.78;;;2.35;;
5774;SDS011;2913;51.120;6.772;2024-02-21T12:12:01;3.42;;;1.65;;
5774;SDS011;2913;51.120;6.772;2024-02-21T12:14:33;12.07;;;2.08;;
5774;SDS011;2913;51.120;6.772;2024-02-21T12:17:03;7.32;;;2.28;;
5774;SDS011;2913;51.120;6.772;2024-02-21T12:19:32;6.47;;;2.22;;
5774;SDS011;2913;51.120;6.772;2024-02-21T12:22:00;9.52;;;2.03;;
5774;SDS011;2913;51.120;6.772;2024-02-21T12:24:30;9.95;;;2.00;;
5774;SDS011;2913;51.120;6.772;2024-02-21T12:26:58;7.45;;;2.40;;
5774;SDS011;2913;51.120;6.772;2024-02-21T12:29:28;8.18;;;2.25;;
5774;SDS011;2913;51.120;6.772;2024-02-21T12:31:55;3.05;;;1.48;;
5774;SDS011;2913;51.120;6.772;2024-02-21T12:34:20;8.75;;;2.05;;
5774;SDS011;2913;51.120;6.772;2024-02-21T12:36:47;7.40;;;2.10;;
5774;SDS011;2913;51.120;6.772;2024-02-21T12:39:13;5.97;;;1.92;;
5774;SDS011;2913;51.120;6.772;2024-02-21T12:41:42;8.23;;;2.22;;
5774;SDS011;2913;51.120;6.772;2024-02-21T12:44:09;9.13;;;2.20;;
5774;SDS011;2913;51.120;6.772;2024-02-21T12:46:36;5.50;;;2.40;;
5774;SDS011;2913;51.120;6.772;2024-02-21T12:49:02;6.55;;;2.03;;
5774;SDS011;2913;51.120;6.772;2024-02-21T12:51:32;8.32;;;2.08;;
5774;SDS011;2913;51.120;6.772;2024-02-21T12:53:58;11.13;;;2.28;;
5774;SDS011;2913;51.120;6.772;2024-02-21T12:56:26;7.75;;;2.33;;
5774;SDS011;2913;51.120;6.772;2024-02-21T12:58:56;4.65;;;1.95;;
5774;SDS011;2913;51.120;6.772;2024-02-21T13:01:22;6.68;;;2.35;;
5774;SDS011;2913;51.120;6.772;2024-02-21T13:03:47;10.30;;;2.75;;
5774;SDS011;2913;51.120;6.772;2024-02-21T13:06:13;7.97;;;2.42;;
5774;SDS011;2913;51.120;6.772;2024-02-21T13:08:39;8.07;;;2.33;;
5774;SDS011;2913;51.120;6.772;2024-02-21T13:11:13;3.72;;;1.67;;
5774;SDS011;2913;51.120;6.772;2024-02-21T13:13:38;8.32;;;2.53;;
5774;SDS011;2913;51.120;6.772;2024-02-21T13:16:04;6.35;;;2.38;;
5774;SDS011;2913;51.120;6.772;2024-02-21T13:18:34;11.05;;;2.63;;
5774;SDS011;2913;51.120;6.772;2024-02-21T13:21:02;7.90;;;2.70;;
5774;SDS011;2913;51.120;6.772;2024-02-21T13:23:34;5.95;;;2.30;;
5774;SDS011;2913;51.120;6.772;2024-02-21T13:26:05;8.27;;;2.50;;
5774;SDS011;2913;51.120;6.772;2024-02-21T13:28:33;8.70;;;2.75;;
5774;SDS011;2913;51.120;6.772;2024-02-21T13:31:01;10.77;;;2.70;;
5774;SDS011;2913;51.120;6.772;2024-02-21T13:33:28;12.57;;;2.78;;
5774;SDS011;2913;51.120;6.772;2024-02-21T13:35:54;10.27;;;2.92;;
5774;SDS011;2913;51.120;6.772;2024-02-21T13:38:21;9.35;;;3.35;;
5774;SDS011;2913;51.120;6.772;2024-02-21T13:40:49;8.93;;;2.97;;
5774;SDS011;2913;51.120;6.772;2024-02-21T13:43:15;9.07;;;2.53;;
5774;SDS011;2913;51.120;6.772;2024-02-21T13:45:41;8.13;;;2.95;;
5774;SDS011;2913;51.120;6.772;2024-02-21T13:48:21;11.57;;;3.05;;
5774;SDS011;2913;51.120;6.772;2024-02-21T13:50:47;8.70;;;2.45;;
5774;SDS011;2913;51.120;6.772;2024-02-21T13:53:12;8.13;;;2.33;;
5774;SDS011;2913;51.120;6.772;2024-02-21T13:55:38;11.98;;;2.58;;
5774;SDS011;2913;51.120;6.772;2024-02-21T13:58:08;9.43;;;2.60;;
5774;SDS011;2913;51.120;6.772;2024-02-21T14:00:33;8.57;;;2.88;;
5774;SDS011;2913;51.120;6.772;2024-02-21T14:03:02;6.30;;;2.30;;
5774;SDS011;2913;51.120;6.772;2024-02-21T14:05:28;12.60;;;3.08;;
5774;SDS011;2913;51.120;6.772;2024-02-21T14:07:53;16.63;;;4.57;;
5774;SDS011;2913;51.120;6.772;2024-02-21T14:10:22;25.77;;;7.28;;
5774;SDS011;2913;51.120;6.772;2024-02-21T14:12:48;20.58;;;7.03;;
5774;SDS011;2913;51.120;6.772;2024-02-21T14:15:14;8.30;;;2.60;;
5774;SDS011;2913;51.120;6.772;2024-02-21T14:17:41;8.60;;;2.70;;
5774;SDS011;2913;51.120;6.772;2024-02-21T14:20:09;9.63;;;2.50;;
5774;SDS011;2913;51.120;6.772;2024-02-21T14:22:39;11.13;;;2.13;;
5774;SDS011;2913;51.120;6.772;2024-02-21T14:25:04;4.90;;;2.13;;
5774;SDS011;2913;51.120;6.772;2024-02-21T14:27:30;19.92;;;6.57;;
5774;SDS011;2913;51.120;6.772;2024-02-21T14:29:57;7.10;;;3.20;;
5774;SDS011;2913;51.120;6.772;2024-02-21T14:32:22;17.88;;;2.65;;
5774;SDS011;2913;51.120;6.772;2024-02-21T14:34:50;13.05;;;1.95;;
5774;SDS011;2913;51.120;6.772;2024-02-21T14:37:16;8.80;;;2.45;;
5774;SDS011;2913;51.120;6.772;2024-02-21T14:39:41;6.10;;;2.45;;
5774;SDS011;2913;51.120;6.772;2024-02-21T14:42:09;9.65;;;2.95;;
5774;SDS011;2913;51.120;6.772;2024-02-21T14:44:35;13.25;;;2.60;;
5774;SDS011;2913;51.120;6.772;2024-02-21T14:47:02;8.15;;;2.63;;
5774;SDS011;2913;51.120;6.772;2024-02-21T14:49:28;8.80;;;2.63;;
5774;SDS011;2913;51.120;6.772;2024-02-21T14:51:59;7.70;;;2.22;;
5774;SDS011;2913;51.120;6.772;2024-02-21T14:54:24;11.00;;;2.72;;
5774;SDS011;2913;51.120;6.772;2024-02-21T14:56:51;11.38;;;2.67;;
5774;SDS011;2913;51.120;6.772;2024-02-21T14:59:16;12.00;;;2.60;;
5774;SDS011;2913;51.120;6.772;2024-02-21T15:01:44;10.65;;;2.58;;
5774;SDS011;2913;51.120;6.772;2024-02-21T15:04:10;8.70;;;2.30;;
5774;SDS011;2913;51.120;6.772;2024-02-21T15:06:38;10.15;;;2.20;;
5774;SDS011;2913;51.120;6.772;2024-02-21T15:09:06;4.15;;;2.15;;
5774;SDS011;2913;51.120;6.772;2024-02-21T15:11:34;15.57;;;2.75;;